Hovedside
METAR-TAF:

METAR-TAF

Lufthavner :

Victoria, Mahé, Seychellene

breddegrad: 04-40S, lengdegrad: 055-31E, høyde over havet: 3 m

Gjeldene værobservasjon

Denne rapporten ble laget for 43 minutter siden, klokken 11:00 UTC
Vind 10 kt fra Sørøst, skiftende mellom Øst og Vest-sørvest
Temperatur 28°C
Luftfuktighet 74%
Trykk 1009 hPa
Sikt 10 km eller mer
Få skyer i en høyde av 2000 ft

METAR: FSIA 041100Z 14010KT 080V250 9999 FEW020 28/23 Q1009 NOSIG

Tid: 15:43 (11:43 UTC)

Varsel

Denne rapporten ble laget for 6 timer og 43 minutter siden, klokken 05:00 UTC
Varsel gyldig fra 04. klokken 06 UTC til 05. klokken 06 UTC
Vind 15 kt fra Sør-sørøst med vindkast opp mot 25 kt
Sikt 10 km eller mer
Spredte skyer i en høyde av 2200 ft
Midlertidig
fra 04. klokken 18 UTC til 05. klokken 02 UTC
Sikt: 8000 m
Få skyer i en høyde av 1200 ft
Brutte skyer i en høyde av 1800 ft
lette regnbyger

TAF: FSIA 040500Z 0406/0506 15015G25KT 9999 SCT022 TEMPO 0418/0502 8000 -SHRA FEW012 BKN018

Værobservasjoner og værvarsel for over 4000 flyplasser (METAR- og TAF-rapporter).

Tilgjengelige stasjoner er representert av de røde og gule prikkene på kartet.

Hold musepekeren over prikken for å se navnet på stasjonen.

Klikk så for å se værobservasjoner og -varsler.

For å forandre kartet kan du klikke på den grønne knappen med svart kryss for å zoome inn, på den grønne knappen med strek for å zoome ut, eller på de grønne pilene for å se tilstøtende kart.


METAR-TAF: